sensor_id;sensor_type;location;lat;lon;timestamp;P1;durP1;ratioP1;P2;durP2;ratioP2
53151;SDS011;39234;53.158;6.322;2022-10-16T00:01:47;11.50;;;1.88;;
53151;SDS011;39234;53.158;6.322;2022-10-16T00:04:13;10.77;;;2.47;;
53151;SDS011;39234;53.158;6.322;2022-10-16T00:06:39;11.18;;;1.95;;
53151;SDS011;39234;53.158;6.322;2022-10-16T00:09:05;13.05;;;2.25;;
53151;SDS011;39234;53.158;6.322;2022-10-16T00:11:33;8.50;;;1.88;;
53151;SDS011;39234;53.158;6.322;2022-10-16T00:14:02;8.20;;;1.65;;
53151;SDS011;39234;53.158;6.322;2022-10-16T00:16:29;9.93;;;1.92;;
53151;SDS011;39234;53.158;6.322;2022-10-16T00:18:55;9.18;;;1.83;;
53151;SDS011;39234;53.158;6.322;2022-10-16T00:21:25;9.15;;;1.75;;
53151;SDS011;39234;53.158;6.322;2022-10-16T00:23:53;11.18;;;1.88;;
53151;SDS011;39234;53.158;6.322;2022-10-16T00:26:20;9.27;;;1.63;;
53151;SDS011;39234;53.158;6.322;2022-10-16T00:28:47;9.13;;;1.70;;
53151;SDS011;39234;53.158;6.322;2022-10-16T00:31:14;9.68;;;2.20;;
53151;SDS011;39234;53.158;6.322;2022-10-16T00:33:41;7.97;;;1.67;;
53151;SDS011;39234;53.158;6.322;2022-10-16T00:36:07;8.73;;;1.42;;
53151;SDS011;39234;53.158;6.322;2022-10-16T00:38:35;7.30;;;1.70;;
53151;SDS011;39234;53.158;6.322;2022-10-16T00:41:02;5.57;;;1.40;;
53151;SDS011;39234;53.158;6.322;2022-10-16T00:45:57;7.95;;;1.55;;
53151;SDS011;39234;53.158;6.322;2022-10-16T00:48:23;5.43;;;1.70;;
53151;SDS011;39234;53.158;6.322;2022-10-16T00:50:49;9.50;;;1.70;;
53151;SDS011;39234;53.158;6.322;2022-10-16T00:53:15;7.05;;;1.65;;
53151;SDS011;39234;53.158;6.322;2022-10-16T00:55:42;6.88;;;1.60;;
53151;SDS011;39234;53.158;6.322;2022-10-16T00:58:08;7.00;;;1.90;;
53151;SDS011;39234;53.158;6.322;2022-10-16T01:00:34;12.35;;;1.70;;
53151;SDS011;39234;53.158;6.322;2022-10-16T01:03:01;8.80;;;1.63;;
53151;SDS011;39234;53.158;6.322;2022-10-16T01:06:02;9.80;;;1.92;;
53151;SDS011;39234;53.158;6.322;2022-10-16T01:08:49;4.97;;;2.22;;
53151;SDS011;39234;53.158;6.322;2022-10-16T01:11:33;10.40;;;1.60;;
53151;SDS011;39234;53.158;6.322;2022-10-16T01:14:28;9.05;;;1.40;;
53151;SDS011;39234;53.158;6.322;2022-10-16T01:16:58;11.02;;;1.77;;
53151;SDS011;39234;53.158;6.322;2022-10-16T01:22:16;7.43;;;1.60;;
53151;SDS011;39234;53.158;6.322;2022-10-16T01:24:46;7.03;;;1.55;;
53151;SDS011;39234;53.158;6.322;2022-10-16T01:27:14;5.82;;;1.75;;
53151;SDS011;39234;53.158;6.322;2022-10-16T01:32:31;7.97;;;1.50;;
53151;SDS011;39234;53.158;6.322;2022-10-16T01:35:09;5.22;;;1.50;;
53151;SDS011;39234;53.158;6.322;2022-10-16T01:40:29;8.75;;;1.42;;
53151;SDS011;39234;53.158;6.322;2022-10-16T01:42:59;8.07;;;1.60;;
53151;SDS011;39234;53.158;6.322;2022-10-16T01:45:34;8.25;;;1.80;;
53151;SDS011;39234;53.158;6.322;2022-10-16T01:48:01;9.35;;;1.70;;
53151;SDS011;39234;53.158;6.322;2022-10-16T01:50:31;5.30;;;1.58;;
53151;SDS011;39234;53.158;6.322;2022-10-16T01:53:00;7.47;;;1.65;;
53151;SDS011;39234;53.158;6.322;2022-10-16T01:55:32;9.38;;;1.77;;
53151;SDS011;39234;53.158;6.322;2022-10-16T01:58:01;8.15;;;1.60;;
53151;SDS011;39234;53.158;6.322;2022-10-16T02:00:30;7.47;;;1.92;;
53151;SDS011;39234;53.158;6.322;2022-10-16T02:02:56;7.70;;;1.98;;
53151;SDS011;39234;53.158;6.322;2022-10-16T02:05:59;6.22;;;1.70;;
53151;SDS011;39234;53.158;6.322;2022-10-16T02:08:20;7.80;;;1.90;;
53151;SDS011;39234;53.158;6.322;2022-10-16T02:10:49;8.98;;;1.67;;
53151;SDS011;39234;53.158;6.322;2022-10-16T02:13:22;8.00;;;1.75;;
53151;SDS011;39234;53.158;6.322;2022-10-16T02:15:52;6.30;;;1.50;;
53151;SDS011;39234;53.158;6.322;2022-10-16T02:18:18;5.40;;;1.63;;
53151;SDS011;39234;53.158;6.322;2022-10-16T02:23:55;4.70;;;1.77;;
53151;SDS011;39234;53.158;6.322;2022-10-16T02:26:30;8.88;;;2.17;;
53151;SDS011;39234;53.158;6.322;2022-10-16T02:29:22;4.78;;;1.25;;
53151;SDS011;39234;53.158;6.322;2022-10-16T02:31:50;5.40;;;1.88;;
53151;SDS011;39234;53.158;6.322;2022-10-16T02:34:21;4.57;;;1.33;;
53151;SDS011;39234;53.158;6.322;2022-10-16T02:36:50;3.67;;;1.20;;
53151;SDS011;39234;53.158;6.322;2022-10-16T02:39:17;5.07;;;1.45;;
53151;SDS011;39234;53.158;6.322;2022-10-16T02:41:44;6.63;;;1.63;;
53151;SDS011;39234;53.158;6.322;2022-10-16T02:44:10;8.30;;;1.80;;
53151;SDS011;39234;53.158;6.322;2022-10-16T02:46:36;5.65;;;1.50;;
53151;SDS011;39234;53.158;6.322;2022-10-16T02:49:02;11.52;;;2.00;;
53151;SDS011;39234;53.158;6.322;2022-10-16T02:51:28;5.65;;;1.52;;
53151;SDS011;39234;53.158;6.322;2022-10-16T02:53:53;4.63;;;1.65;;
53151;SDS011;39234;53.158;6.322;2022-10-16T02:56:19;5.85;;;1.40;;
53151;SDS011;39234;53.158;6.322;2022-10-16T02:58:45;3.78;;;1.33;;
53151;SDS011;39234;53.158;6.322;2022-10-16T03:01:10;5.13;;;1.70;;
53151;SDS011;39234;53.158;6.322;2022-10-16T03:03:38;5.03;;;1.60;;
53151;SDS011;39234;53.158;6.322;2022-10-16T03:06:04;4.82;;;1.90;;
53151;SDS011;39234;53.158;6.322;2022-10-16T03:08:30;5.90;;;1.50;;
53151;SDS011;39234;53.158;6.322;2022-10-16T03:10:57;4.35;;;1.27;;
53151;SDS011;39234;53.158;6.322;2022-10-16T03:13:22;4.78;;;1.42;;
53151;SDS011;39234;53.158;6.322;2022-10-16T03:15:48;8.65;;;1.70;;
53151;SDS011;39234;53.158;6.322;2022-10-16T03:18:14;9.00;;;1.80;;
53151;SDS011;39234;53.158;6.322;2022-10-16T03:20:40;3.20;;;1.52;;
53151;SDS011;39234;53.158;6.322;2022-10-16T03:23:05;3.80;;;1.38;;
53151;SDS011;39234;53.158;6.322;2022-10-16T03:25:33;5.15;;;1.52;;
53151;SDS011;39234;53.158;6.322;2022-10-16T03:27:58;6.82;;;2.25;;
53151;SDS011;39234;53.158;6.322;2022-10-16T03:30:24;10.07;;;1.70;;
53151;SDS011;39234;53.158;6.322;2022-10-16T03:32:50;4.95;;;1.60;;
53151;SDS011;39234;53.158;6.322;2022-10-16T03:35:19;4.25;;;1.50;;
53151;SDS011;39234;53.158;6.322;2022-10-16T03:37:48;4.75;;;1.50;;
53151;SDS011;39234;53.158;6.322;2022-10-16T03:40:15;5.13;;;1.52;;
53151;SDS011;39234;53.158;6.322;2022-10-16T03:42:44;7.07;;;1.60;;
53151;SDS011;39234;53.158;6.322;2022-10-16T03:45:10;5.85;;;1.50;;
53151;SDS011;39234;53.158;6.322;2022-10-16T03:47:36;4.57;;;1.40;;
53151;SDS011;39234;53.158;6.322;2022-10-16T03:50:02;6.95;;;2.08;;
53151;SDS011;39234;53.158;6.322;2022-10-16T03:52:29;3.88;;;1.27;;
53151;SDS011;39234;53.158;6.322;2022-10-16T03:54:54;7.93;;;1.77;;
53151;SDS011;39234;53.158;6.322;2022-10-16T03:57:20;6.47;;;1.73;;
53151;SDS011;39234;53.158;6.322;2022-10-16T03:59:46;8.00;;;1.65;;
53151;SDS011;39234;53.158;6.322;2022-10-16T04:02:12;5.13;;;1.63;;
53151;SDS011;39234;53.158;6.322;2022-10-16T04:04:38;5.30;;;1.45;;
53151;SDS011;39234;53.158;6.322;2022-10-16T04:07:03;6.60;;;1.80;;
53151;SDS011;39234;53.158;6.322;2022-10-16T04:09:29;4.97;;;1.38;;
53151;SDS011;39234;53.158;6.322;2022-10-16T04:11:55;3.75;;;1.77;;
53151;SDS011;39234;53.158;6.322;2022-10-16T04:14:21;6.20;;;1.80;;
53151;SDS011;39234;53.158;6.322;2022-10-16T04:16:47;5.88;;;1.67;;
53151;SDS011;39234;53.158;6.322;2022-10-16T04:19:12;3.47;;;1.30;;
53151;SDS011;39234;53.158;6.322;2022-10-16T04:21:38;5.60;;;1.50;;
53151;SDS011;39234;53.158;6.322;2022-10-16T04:24:04;5.55;;;1.42;;
53151;SDS011;39234;53.158;6.322;2022-10-16T04:26:30;5.20;;;1.67;;
53151;SDS011;39234;53.158;6.322;2022-10-16T04:28:55;6.32;;;1.50;;
53151;SDS011;39234;53.158;6.322;2022-10-16T04:31:21;10.23;;;1.83;;
53151;SDS011;39234;53.158;6.322;2022-10-16T04:33:47;5.70;;;1.65;;
53151;SDS011;39234;53.158;6.322;2022-10-16T04:36:13;5.82;;;1.63;;
53151;SDS011;39234;53.158;6.322;2022-10-16T04:38:39;7.32;;;1.98;;
53151;SDS011;39234;53.158;6.322;2022-10-16T04:41:05;5.43;;;1.75;;
53151;SDS011;39234;53.158;6.322;2022-10-16T04:43:32;6.10;;;1.90;;
53151;SDS011;39234;53.158;6.322;2022-10-16T04:45:58;5.28;;;1.73;;
53151;SDS011;39234;53.158;6.322;2022-10-16T04:48:25;11.05;;;1.88;;
53151;SDS011;39234;53.158;6.322;2022-10-16T04:50:50;7.15;;;2.25;;
53151;SDS011;39234;53.158;6.322;2022-10-16T04:53:16;5.20;;;1.70;;
53151;SDS011;39234;53.158;6.322;2022-10-16T04:55:42;7.32;;;1.70;;
53151;SDS011;39234;53.158;6.322;2022-10-16T04:58:08;5.18;;;1.70;;
53151;SDS011;39234;53.158;6.322;2022-10-16T05:00:34;7.20;;;2.03;;
53151;SDS011;39234;53.158;6.322;2022-10-16T05:03:01;5.82;;;1.70;;
53151;SDS011;39234;53.158;6.322;2022-10-16T05:05:30;6.68;;;2.15;;
53151;SDS011;39234;53.158;6.322;2022-10-16T05:07:56;7.45;;;2.10;;
53151;SDS011;39234;53.158;6.322;2022-10-16T05:10:22;7.45;;;2.08;;
53151;SDS011;39234;53.158;6.322;2022-10-16T05:12:48;4.63;;;1.73;;
53151;SDS011;39234;53.158;6.322;2022-10-16T05:15:13;7.57;;;2.15;;
53151;SDS011;39234;53.158;6.322;2022-10-16T05:17:39;6.13;;;2.42;;
53151;SDS011;39234;53.158;6.322;2022-10-16T05:20:05;5.40;;;2.20;;
53151;SDS011;39234;53.158;6.322;2022-10-16T05:22:31;4.68;;;1.77;;
53151;SDS011;39234;53.158;6.322;2022-10-16T05:24:57;5.18;;;1.70;;
53151;SDS011;39234;53.158;6.322;2022-10-16T05:27:23;6.70;;;2.47;;
53151;SDS011;39234;53.158;6.322;2022-10-16T05:29:48;6.85;;;2.30;;
53151;SDS011;39234;53.158;6.322;2022-10-16T05:32:15;4.32;;;1.98;;
53151;SDS011;39234;53.158;6.322;2022-10-16T05:34:42;5.47;;;1.80;;
53151;SDS011;39234;53.158;6.322;2022-10-16T05:37:08;5.65;;;2.20;;
53151;SDS011;39234;53.158;6.322;2022-10-16T05:39:34;6.72;;;2.45;;
53151;SDS011;39234;53.158;6.322;2022-10-16T05:42:02;7.60;;;2.55;;
53151;SDS011;39234;53.158;6.322;2022-10-16T05:44:27;8.70;;;2.17;;
53151;SDS011;39234;53.158;6.322;2022-10-16T05:46:53;10.40;;;2.50;;
53151;SDS011;39234;53.158;6.322;2022-10-16T05:49:19;8.88;;;2.08;;
53151;SDS011;39234;53.158;6.322;2022-10-16T05:51:44;7.47;;;2.25;;
53151;SDS011;39234;53.158;6.322;2022-10-16T05:54:10;6.57;;;2.22;;
53151;SDS011;39234;53.158;6.322;2022-10-16T05:56:36;6.25;;;2.50;;
53151;SDS011;39234;53.158;6.322;2022-10-16T05:59:05;8.13;;;2.67;;
53151;SDS011;39234;53.158;6.322;2022-10-16T06:01:30;9.73;;;3.50;;
53151;SDS011;39234;53.158;6.322;2022-10-16T06:03:56;5.93;;;2.35;;
53151;SDS011;39234;53.158;6.322;2022-10-16T06:06:23;7.50;;;2.40;;
53151;SDS011;39234;53.158;6.322;2022-10-16T06:08:51;7.45;;;2.42;;
53151;SDS011;39234;53.158;6.322;2022-10-16T06:11:18;5.45;;;2.40;;
53151;SDS011;39234;53.158;6.322;2022-10-16T06:13:50;11.40;;;3.28;;
53151;SDS011;39234;53.158;6.322;2022-10-16T06:16:16;6.88;;;2.53;;
53151;SDS011;39234;53.158;6.322;2022-10-16T06:18:42;9.55;;;2.88;;
53151;SDS011;39234;53.158;6.322;2022-10-16T06:21:09;11.40;;;3.05;;
53151;SDS011;39234;53.158;6.322;2022-10-16T06:23:37;9.93;;;2.58;;
53151;SDS011;39234;53.158;6.322;2022-10-16T06:26:06;5.30;;;2.40;;
53151;SDS011;39234;53.158;6.322;2022-10-16T06:28:34;5.53;;;2.33;;
53151;SDS011;39234;53.158;6.322;2022-10-16T06:31:00;9.90;;;3.13;;
53151;SDS011;39234;53.158;6.322;2022-10-16T06:33:26;7.18;;;2.78;;
53151;SDS011;39234;53.158;6.322;2022-10-16T06:35:52;8.40;;;2.80;;
53151;SDS011;39234;53.158;6.322;2022-10-16T06:38:18;5.90;;;2.60;;
53151;SDS011;39234;53.158;6.322;2022-10-16T06:40:43;7.95;;;3.15;;
53151;SDS011;39234;53.158;6.322;2022-10-16T06:43:09;7.40;;;2.40;;
53151;SDS011;39234;53.158;6.322;2022-10-16T06:45:35;9.20;;;2.38;;
53151;SDS011;39234;53.158;6.322;2022-10-16T06:48:00;8.57;;;2.40;;
53151;SDS011;39234;53.158;6.322;2022-10-16T06:50:26;7.20;;;2.30;;
53151;SDS011;39234;53.158;6.322;2022-10-16T06:52:52;9.85;;;2.28;;
53151;SDS011;39234;53.158;6.322;2022-10-16T06:55:17;6.93;;;2.30;;
53151;SDS011;39234;53.158;6.322;2022-10-16T06:57:43;8.07;;;2.15;;
53151;SDS011;39234;53.158;6.322;2022-10-16T07:00:11;7.60;;;2.70;;
53151;SDS011;39234;53.158;6.322;2022-10-16T07:02:37;6.80;;;2.40;;
53151;SDS011;39234;53.158;6.322;2022-10-16T07:05:03;8.18;;;2.22;;
53151;SDS011;39234;53.158;6.322;2022-10-16T07:07:29;8.15;;;2.40;;
53151;SDS011;39234;53.158;6.322;2022-10-16T07:09:54;8.80;;;2.60;;
53151;SDS011;39234;53.158;6.322;2022-10-16T07:12:20;7.80;;;2.40;;
53151;SDS011;39234;53.158;6.322;2022-10-16T07:14:46;9.00;;;2.08;;
53151;SDS011;39234;53.158;6.322;2022-10-16T07:17:12;6.85;;;2.05;;
53151;SDS011;39234;53.158;6.322;2022-10-16T07:19:38;5.13;;;2.10;;
53151;SDS011;39234;53.158;6.322;2022-10-16T07:22:03;9.10;;;2.42;;
53151;SDS011;39234;53.158;6.322;2022-10-16T07:24:29;11.38;;;2.33;;
53151;SDS011;39234;53.158;6.322;2022-10-16T07:26:55;9.32;;;2.30;;
53151;SDS011;39234;53.158;6.322;2022-10-16T07:29:21;9.43;;;2.30;;
53151;SDS011;39234;53.158;6.322;2022-10-16T07:31:47;7.43;;;2.20;;
53151;SDS011;39234;53.158;6.322;2022-10-16T07:34:14;6.05;;;2.17;;
53151;SDS011;39234;53.158;6.322;2022-10-16T07:36:41;6.78;;;2.17;;
53151;SDS011;39234;53.158;6.322;2022-10-16T07:39:07;7.45;;;2.47;;
53151;SDS011;39234;53.158;6.322;2022-10-16T07:41:33;7.03;;;2.72;;
53151;SDS011;39234;53.158;6.322;2022-10-16T07:44:02;8.98;;;2.90;;
53151;SDS011;39234;53.158;6.322;2022-10-16T07:46:28;6.80;;;2.38;;
53151;SDS011;39234;53.158;6.322;2022-10-16T07:48:55;7.53;;;2.72;;
53151;SDS011;39234;53.158;6.322;2022-10-16T07:51:22;10.35;;;2.83;;
53151;SDS011;39234;53.158;6.322;2022-10-16T07:53:49;7.32;;;2.60;;
53151;SDS011;39234;53.158;6.322;2022-10-16T07:56:16;8.75;;;3.10;;
53151;SDS011;39234;53.158;6.322;2022-10-16T07:58:43;7.82;;;2.75;;
53151;SDS011;39234;53.158;6.322;2022-10-16T08:01:09;7.10;;;2.70;;
53151;SDS011;39234;53.158;6.322;2022-10-16T08:03:38;4.40;;;2.30;;
53151;SDS011;39234;53.158;6.322;2022-10-16T08:06:06;6.15;;;3.00;;
53151;SDS011;39234;53.158;6.322;2022-10-16T08:08:32;6.32;;;2.70;;
53151;SDS011;39234;53.158;6.322;2022-10-16T08:10:58;7.95;;;2.60;;
53151;SDS011;39234;53.158;6.322;2022-10-16T08:13:24;6.28;;;2.45;;
53151;SDS011;39234;53.158;6.322;2022-10-16T08:15:49;4.60;;;2.20;;
53151;SDS011;39234;53.158;6.322;2022-10-16T08:18:15;7.25;;;2.65;;
53151;SDS011;39234;53.158;6.322;2022-10-16T08:20:42;7.60;;;1.90;;
53151;SDS011;39234;53.158;6.322;2022-10-16T08:23:09;9.48;;;3.30;;
53151;SDS011;39234;53.158;6.322;2022-10-16T08:25:36;7.50;;;2.20;;
53151;SDS011;39234;53.158;6.322;2022-10-16T08:28:06;9.27;;;2.38;;
53151;SDS011;39234;53.158;6.322;2022-10-16T08:30:33;7.10;;;2.05;;
53151;SDS011;39234;53.158;6.322;2022-10-16T08:33:00;7.68;;;1.83;;
53151;SDS011;39234;53.158;6.322;2022-10-16T08:35:26;8.88;;;1.88;;
53151;SDS011;39234;53.158;6.322;2022-10-16T08:37:52;6.80;;;1.80;;
53151;SDS011;39234;53.158;6.322;2022-10-16T08:40:19;6.80;;;1.67;;
53151;SDS011;39234;53.158;6.322;2022-10-16T08:51:12;4.88;;;1.50;;
53151;SDS011;39234;53.158;6.322;2022-10-16T08:53:48;7.43;;;1.50;;
53151;SDS011;39234;53.158;6.322;2022-10-16T08:56:18;7.15;;;1.58;;
53151;SDS011;39234;53.158;6.322;2022-10-16T08:58:44;5.13;;;1.27;;
53151;SDS011;39234;53.158;6.322;2022-10-16T09:01:12;6.35;;;1.48;;
53151;SDS011;39234;53.158;6.322;2022-10-16T09:12:04;10.55;;;2.22;;
53151;SDS011;39234;53.158;6.322;2022-10-16T09:14:41;11.05;;;2.28;;
53151;SDS011;39234;53.158;6.322;2022-10-16T09:17:39;10.30;;;1.85;;
53151;SDS011;39234;53.158;6.322;2022-10-16T09:22:56;9.25;;;2.10;;
53151;SDS011;39234;53.158;6.322;2022-10-16T09:25:38;11.32;;;1.60;;
53151;SDS011;39234;53.158;6.322;2022-10-16T09:28:07;8.35;;;1.58;;
53151;SDS011;39234;53.158;6.322;2022-10-16T09:30:34;11.32;;;1.85;;
53151;SDS011;39234;53.158;6.322;2022-10-16T09:33:00;9.98;;;1.55;;
53151;SDS011;39234;53.158;6.322;2022-10-16T09:35:31;9.43;;;1.55;;
53151;SDS011;39234;53.158;6.322;2022-10-16T09:38:01;12.32;;;1.95;;
53151;SDS011;39234;53.158;6.322;2022-10-16T09:40:30;9.75;;;1.63;;
53151;SDS011;39234;53.158;6.322;2022-10-16T09:45:43;12.40;;;2.13;;
53151;SDS011;39234;53.158;6.322;2022-10-16T09:48:19;17.10;;;2.40;;
53151;SDS011;39234;53.158;6.322;2022-10-16T09:50:54;9.52;;;2.15;;
53151;SDS011;39234;53.158;6.322;2022-10-16T09:53:21;7.30;;;1.70;;
53151;SDS011;39234;53.158;6.322;2022-10-16T09:55:48;10.77;;;2.10;;
53151;SDS011;39234;53.158;6.322;2022-10-16T09:58:21;11.82;;;1.58;;
53151;SDS011;39234;53.158;6.322;2022-10-16T10:00:52;10.60;;;1.75;;
53151;SDS011;39234;53.158;6.322;2022-10-16T10:03:25;12.68;;;2.22;;
53151;SDS011;39234;53.158;6.322;2022-10-16T10:05:59;14.02;;;2.55;;
53151;SDS011;39234;53.158;6.322;2022-10-16T10:08:32;11.60;;;2.72;;
53151;SDS011;39234;53.158;6.322;2022-10-16T10:10:58;16.65;;;2.88;;
53151;SDS011;39234;53.158;6.322;2022-10-16T10:13:24;8.85;;;1.65;;
53151;SDS011;39234;53.158;6.322;2022-10-16T10:15:51;11.80;;;2.05;;
53151;SDS011;39234;53.158;6.322;2022-10-16T10:18:19;13.02;;;2.20;;
53151;SDS011;39234;53.158;6.322;2022-10-16T10:20:56;13.18;;;2.00;;
53151;SDS011;39234;53.158;6.322;2022-10-16T10:23:26;11.93;;;2.30;;
53151;SDS011;39234;53.158;6.322;2022-10-16T10:26:02;10.85;;;1.83;;
53151;SDS011;39234;53.158;6.322;2022-10-16T10:28:53;15.73;;;2.22;;
53151;SDS011;39234;53.158;6.322;2022-10-16T10:40:34;9.73;;;1.90;;
53151;SDS011;39234;53.158;6.322;2022-10-16T10:43:11;15.73;;;2.72;;
53151;SDS011;39234;53.158;6.322;2022-10-16T10:45:46;20.75;;;2.97;;
53151;SDS011;39234;53.158;6.322;2022-10-16T10:54:06;12.30;;;2.10;;
53151;SDS011;39234;53.158;6.322;2022-10-16T11:02:26;13.48;;;2.28;;
53151;SDS011;39234;53.158;6.322;2022-10-16T11:07:34;17.08;;;2.97;;
53151;SDS011;39234;53.158;6.322;2022-10-16T11:10:08;14.32;;;2.15;;
53151;SDS011;39234;53.158;6.322;2022-10-16T11:15:58;12.55;;;2.55;;
53151;SDS011;39234;53.158;6.322;2022-10-16T11:19:02;9.83;;;1.77;;
53151;SDS011;39234;53.158;6.322;2022-10-16T11:21:44;13.50;;;2.30;;
53151;SDS011;39234;53.158;6.322;2022-10-16T11:24:30;14.02;;;2.35;;
53151;SDS011;39234;53.158;6.322;2022-10-16T11:27:00;13.73;;;2.53;;
53151;SDS011;39234;53.158;6.322;2022-10-16T11:29:33;8.43;;;2.33;;
53151;SDS011;39234;53.158;6.322;2022-10-16T11:32:07;16.05;;;2.33;;
53151;SDS011;39234;53.158;6.322;2022-10-16T11:34:48;11.82;;;2.90;;
53151;SDS011;39234;53.158;6.322;2022-10-16T11:37:19;13.25;;;1.98;;
53151;SDS011;39234;53.158;6.322;2022-10-16T11:39:49;12.55;;;2.22;;
53151;SDS011;39234;53.158;6.322;2022-10-16T11:43:01;10.93;;;1.88;;
53151;SDS011;39234;53.158;6.322;2022-10-16T11:53:01;13.18;;;2.30;;
53151;SDS011;39234;53.158;6.322;2022-10-16T11:55:49;15.20;;;2.50;;
53151;SDS011;39234;53.158;6.322;2022-10-16T11:58:19;15.30;;;2.97;;
53151;SDS011;39234;53.158;6.322;2022-10-16T12:03:33;17.17;;;2.58;;
53151;SDS011;39234;53.158;6.322;2022-10-16T12:09:15;17.05;;;2.60;;
53151;SDS011;39234;53.158;6.322;2022-10-16T12:11:43;15.40;;;2.85;;
53151;SDS011;39234;53.158;6.322;2022-10-16T12:16:38;14.00;;;2.42;;
53151;SDS011;39234;53.158;6.322;2022-10-16T12:19:19;17.25;;;2.40;;
53151;SDS011;39234;53.158;6.322;2022-10-16T12:21:45;16.50;;;2.95;;
53151;SDS011;39234;53.158;6.322;2022-10-16T12:24:32;10.85;;;1.98;;
53151;SDS011;39234;53.158;6.322;2022-10-16T12:27:01;16.98;;;2.42;;
53151;SDS011;39234;53.158;6.322;2022-10-16T12:31:57;11.38;;;1.83;;
53151;SDS011;39234;53.158;6.322;2022-10-16T12:34:26;15.02;;;2.33;;
53151;SDS011;39234;53.158;6.322;2022-10-16T12:37:14;15.00;;;2.88;;
53151;SDS011;39234;53.158;6.322;2022-10-16T12:40:13;10.57;;;2.03;;
53151;SDS011;39234;53.158;6.322;2022-10-16T12:42:48;14.27;;;2.58;;
53151;SDS011;39234;53.158;6.322;2022-10-16T12:45:25;18.17;;;2.38;;
53151;SDS011;39234;53.158;6.322;2022-10-16T12:47:56;14.15;;;2.75;;
53151;SDS011;39234;53.158;6.322;2022-10-16T12:52:58;14.82;;;2.50;;
53151;SDS011;39234;53.158;6.322;2022-10-16T12:55:25;11.10;;;3.08;;
53151;SDS011;39234;53.158;6.322;2022-10-16T13:03:26;10.45;;;2.20;;
53151;SDS011;39234;53.158;6.322;2022-10-16T13:20:12;12.15;;;1.80;;
53151;SDS011;39234;53.158;6.322;2022-10-16T13:25:42;13.82;;;2.45;;
53151;SDS011;39234;53.158;6.322;2022-10-16T13:28:17;10.90;;;1.98;;
53151;SDS011;39234;53.158;6.322;2022-10-16T13:30:53;13.45;;;1.95;;
53151;SDS011;39234;53.158;6.322;2022-10-16T13:33:24;18.23;;;2.95;;
53151;SDS011;39234;53.158;6.322;2022-10-16T13:35:56;13.07;;;2.20;;
53151;SDS011;39234;53.158;6.322;2022-10-16T13:38:24;18.35;;;2.67;;
53151;SDS011;39234;53.158;6.322;2022-10-16T13:43:18;11.57;;;1.88;;
53151;SDS011;39234;53.158;6.322;2022-10-16T13:45:53;13.85;;;2.38;;
53151;SDS011;39234;53.158;6.322;2022-10-16T13:48:21;11.60;;;2.28;;
53151;SDS011;39234;53.158;6.322;2022-10-16T13:50:46;9.60;;;2.20;;
53151;SDS011;39234;53.158;6.322;2022-10-16T13:53:37;17.02;;;2.25;;
53151;SDS011;39234;53.158;6.322;2022-10-16T13:56:03;10.27;;;1.80;;
53151;SDS011;39234;53.158;6.322;2022-10-16T13:58:31;15.95;;;2.70;;
53151;SDS011;39234;53.158;6.322;2022-10-16T14:00:58;12.82;;;2.13;;
53151;SDS011;39234;53.158;6.322;2022-10-16T14:03:26;13.15;;;2.00;;
53151;SDS011;39234;53.158;6.322;2022-10-16T14:05:54;19.05;;;2.80;;
53151;SDS011;39234;53.158;6.322;2022-10-16T14:08:22;12.27;;;2.00;;
53151;SDS011;39234;53.158;6.322;2022-10-16T14:10:50;13.38;;;2.20;;
53151;SDS011;39234;53.158;6.322;2022-10-16T14:13:20;10.93;;;2.10;;
53151;SDS011;39234;53.158;6.322;2022-10-16T14:15:55;16.25;;;2.95;;
53151;SDS011;39234;53.158;6.322;2022-10-16T14:18:24;14.43;;;2.88;;
53151;SDS011;39234;53.158;6.322;2022-10-16T14:20:52;16.00;;;2.53;;
53151;SDS011;39234;53.158;6.322;2022-10-16T14:25:48;15.00;;;2.00;;
53151;SDS011;39234;53.158;6.322;2022-10-16T14:30:57;15.30;;;3.03;;
53151;SDS011;39234;53.158;6.322;2022-10-16T14:36:01;17.50;;;2.67;;
53151;SDS011;39234;53.158;6.322;2022-10-16T14:38:30;12.55;;;2.30;;
53151;SDS011;39234;53.158;6.322;2022-10-16T14:40:57;13.27;;;2.45;;
53151;SDS011;39234;53.158;6.322;2022-10-16T14:43:32;13.93;;;1.85;;
53151;SDS011;39234;53.158;6.322;2022-10-16T14:46:03;15.63;;;2.45;;
53151;SDS011;39234;53.158;6.322;2022-10-16T14:48:42;14.77;;;2.50;;
53151;SDS011;39234;53.158;6.322;2022-10-16T14:51:11;13.30;;;2.15;;
53151;SDS011;39234;53.158;6.322;2022-10-16T14:53:42;13.07;;;2.10;;
53151;SDS011;39234;53.158;6.322;2022-10-16T14:56:21;14.95;;;2.28;;
53151;SDS011;39234;53.158;6.322;2022-10-16T14:58:54;13.52;;;2.50;;
53151;SDS011;39234;53.158;6.322;2022-10-16T15:01:20;15.57;;;2.28;;
53151;SDS011;39234;53.158;6.322;2022-10-16T15:03:47;12.63;;;2.40;;
53151;SDS011;39234;53.158;6.322;2022-10-16T15:06:13;12.60;;;2.13;;
53151;SDS011;39234;53.158;6.322;2022-10-16T15:08:40;12.40;;;2.10;;
53151;SDS011;39234;53.158;6.322;2022-10-16T15:11:12;11.80;;;2.55;;
53151;SDS011;39234;53.158;6.322;2022-10-16T15:13:40;16.30;;;2.70;;
53151;SDS011;39234;53.158;6.322;2022-10-16T15:16:10;13.32;;;2.30;;
53151;SDS011;39234;53.158;6.322;2022-10-16T15:18:38;14.82;;;2.65;;
53151;SDS011;39234;53.158;6.322;2022-10-16T15:21:04;11.68;;;2.10;;
53151;SDS011;39234;53.158;6.322;2022-10-16T15:23:30;15.48;;;2.08;;
53151;SDS011;39234;53.158;6.322;2022-10-16T15:25:56;14.57;;;2.10;;
53151;SDS011;39234;53.158;6.322;2022-10-16T15:28:23;14.00;;;2.58;;
53151;SDS011;39234;53.158;6.322;2022-10-16T15:30:51;15.82;;;2.72;;
53151;SDS011;39234;53.158;6.322;2022-10-16T15:33:19;16.80;;;3.00;;
53151;SDS011;39234;53.158;6.322;2022-10-16T15:35:51;14.43;;;2.30;;
53151;SDS011;39234;53.158;6.322;2022-10-16T15:38:18;10.70;;;1.73;;
53151;SDS011;39234;53.158;6.322;2022-10-16T15:40:45;16.15;;;2.33;;
53151;SDS011;39234;53.158;6.322;2022-10-16T15:43:12;12.80;;;2.20;;
53151;SDS011;39234;53.158;6.322;2022-10-16T15:45:37;14.10;;;3.33;;
53151;SDS011;39234;53.158;6.322;2022-10-16T15:48:03;13.13;;;2.10;;
53151;SDS011;39234;53.158;6.322;2022-10-16T15:50:30;13.85;;;2.08;;
53151;SDS011;39234;53.158;6.322;2022-10-16T15:52:56;16.05;;;2.17;;
53151;SDS011;39234;53.158;6.322;2022-10-16T15:55:22;15.82;;;2.25;;
53151;SDS011;39234;53.158;6.322;2022-10-16T15:57:47;12.00;;;1.80;;
53151;SDS011;39234;53.158;6.322;2022-10-16T16:00:15;16.00;;;2.10;;
53151;SDS011;39234;53.158;6.322;2022-10-16T16:02:43;11.95;;;2.10;;
53151;SDS011;39234;53.158;6.322;2022-10-16T16:05:14;9.93;;;1.55;;
53151;SDS011;39234;53.158;6.322;2022-10-16T16:07:40;13.57;;;2.47;;
53151;SDS011;39234;53.158;6.322;2022-10-16T16:10:07;19.25;;;2.33;;
53151;SDS011;39234;53.158;6.322;2022-10-16T16:12:34;12.05;;;1.70;;
53151;SDS011;39234;53.158;6.322;2022-10-16T16:15:00;11.20;;;1.98;;
53151;SDS011;39234;53.158;6.322;2022-10-16T16:17:26;17.88;;;3.13;;
53151;SDS011;39234;53.158;6.322;2022-10-16T16:19:52;15.85;;;2.72;;
53151;SDS011;39234;53.158;6.322;2022-10-16T16:22:18;10.90;;;1.80;;
53151;SDS011;39234;53.158;6.322;2022-10-16T16:24:43;12.80;;;2.08;;
53151;SDS011;39234;53.158;6.322;2022-10-16T16:27:09;16.30;;;3.03;;
53151;SDS011;39234;53.158;6.322;2022-10-16T16:29:35;15.18;;;2.10;;
53151;SDS011;39234;53.158;6.322;2022-10-16T16:32:01;14.73;;;2.35;;
53151;SDS011;39234;53.158;6.322;2022-10-16T16:34:27;12.85;;;2.17;;
53151;SDS011;39234;53.158;6.322;2022-10-16T16:36:54;14.70;;;3.88;;
53151;SDS011;39234;53.158;6.322;2022-10-16T16:39:20;15.63;;;2.45;;
53151;SDS011;39234;53.158;6.322;2022-10-16T16:41:46;17.10;;;2.13;;
53151;SDS011;39234;53.158;6.322;2022-10-16T16:44:12;12.05;;;2.22;;
53151;SDS011;39234;53.158;6.322;2022-10-16T16:46:40;16.08;;;2.70;;
53151;SDS011;39234;53.158;6.322;2022-10-16T16:49:08;16.02;;;2.13;;
53151;SDS011;39234;53.158;6.322;2022-10-16T16:51:35;19.42;;;3.17;;